Willow Hill, Illinois
Current Conditions -  °F | °C
As of 3:55 AM on Sunday 23 Nov 2014 (Local Time) from KRSV Reporting Station
Broken Clouds Broken Clouds  
Wind Chill: 51°   Ceiling: 10000
Heat Index: 51°   Visibility: 10mi
Dew Point: 40°   Wind: 14mph
Humidity: 67%   Direction: 170°S
Pressure: 29.9"   Gusts: 20mph
Location:  39°N, 88.02°W
Report Text: KRSV 230955Z AUTO 17012G17KT 10SM BKN100 11/05 A2990 RMK AO2 T01050046
Loading
Personal Weather Stations






























Interactive Weather Map New forecast layout! Learn more

10-Day Weather Forecast

Advertisements
Track Severe Weather on mobile